Time;durP1;ratioP1;P1;durP2;ratioP2;P2;SDS_P1;SDS_P2;PMS_P1;PMS_P2;Temp;Humidity;BMP_temperature;BMP_pressure;BME280_temperature;BME280_humidity;BME280_pressure;Samples;Min_cycle;Max_cycle;Signal;HPM_P1;HPM_P2
2024/02/03 00:01:07;;;;;;;5.47;4.93;;;10.50;99.90;;;;;;5097031;28;20194;-87
2024/02/03 00:03:33;;;;;;;7.43;5.90;;;10.40;99.90;;;;;;5107370;28;20206;-89
2024/02/03 00:05:59;;;;;;;7.43;5.23;;;10.40;99.90;;;;;;5112121;28;20631;-92
2024/02/03 00:08:26;;;;;;;6.23;5.10;;;10.70;99.90;;;;;;5103791;28;20193;-90
2024/02/03 00:10:52;;;;;;;7.27;5.00;;;10.60;99.90;;;;;;5102710;28;20181;-90
2024/02/03 00:13:18;;;;;;;6.20;5.20;;;10.60;99.90;;;;;;5103153;28;20179;-88
2024/02/03 00:15:43;;;;;;;7.17;4.67;;;10.50;99.90;;;;;;5102394;28;20174;-92
2024/02/03 00:18:09;;;;;;;5.77;5.17;;;10.60;99.90;;;;;;5121067;28;20574;-91
2024/02/03 00:20:35;;;;;;;6.43;4.97;;;10.70;99.90;;;;;;5102926;28;20177;-89
2024/02/03 00:23:00;;;;;;;7.63;5.00;;;10.70;99.90;;;;;;5102711;28;20181;-92
2024/02/03 00:25:26;;;;;;;6.07;5.40;;;10.60;99.90;;;;;;5103050;28;20634;-90
2024/02/03 00:27:52;;;;;;;6.33;5.17;;;10.60;99.90;;;;;;5102467;28;20207;-87
2024/02/03 00:30:17;;;;;;;6.77;4.77;;;10.60;99.90;;;;;;5101554;28;20747;-92
2024/02/03 00:32:43;;;;;;;6.23;5.17;;;10.60;99.90;;;;;;5102118;28;20181;-92
2024/02/03 00:35:10;;;;;;;8.63;5.37;;;10.60;99.90;;;;;;5101951;28;20220;-88
2024/02/03 00:37:35;;;;;;;9.73;6.17;;;10.50;99.90;;;;;;5120341;28;20193;-87
2024/02/03 00:40:03;;;;;;;7.33;5.50;;;10.50;99.90;;;;;;5102526;28;20265;-90
2024/02/03 00:42:29;;;;;;;5.53;5.00;;;10.60;99.90;;;;;;5102870;28;20171;-92
2024/02/03 00:44:55;;;;;;;7.47;5.60;;;10.60;99.90;;;;;;5102796;28;20286;-90
2024/02/03 00:47:21;;;;;;;6.63;5.77;;;10.60;99.90;;;;;;5102074;28;20702;-92
2024/02/03 00:49:46;;;;;;;8.20;5.93;;;10.60;99.90;;;;;;5102572;28;20179;-92
2024/02/03 00:52:12;;;;;;;7.90;6.50;;;10.50;99.90;;;;;;5101548;28;20307;-87
2024/02/03 00:54:38;;;;;;;7.77;5.63;;;10.40;99.90;;;;;;5102331;28;20174;-88
2024/02/03 00:57:04;;;;;;;7.90;6.00;;;10.50;99.90;;;;;;5102917;28;20198;-87
2024/02/03 00:59:30;;;;;;;8.50;6.23;;;10.50;99.90;;;;;;5119449;28;20198;-92
2024/02/03 01:01:56;;;;;;;7.13;5.83;;;10.50;99.90;;;;;;5101082;28;20654;-91
2024/02/03 01:04:22;;;;;;;9.20;6.50;;;10.50;99.90;;;;;;5102320;28;20259;-92
2024/02/03 01:06:49;;;;;;;9.10;6.20;;;10.50;99.90;;;;;;5102237;28;20170;-92
2024/02/03 01:09:17;;;;;;;8.70;6.57;;;10.50;99.90;;;;;;5102035;28;20182;-89
2024/02/03 01:11:43;;;;;;;7.93;6.43;;;10.50;99.90;;;;;;5102411;28;20171;-89
2024/02/03 01:14:09;;;;;;;8.97;6.40;;;10.50;99.90;;;;;;5102200;28;20172;-88
2024/02/03 01:16:35;;;;;;;7.87;6.40;;;10.50;99.90;;;;;;5102528;28;20221;-89
2024/02/03 01:19:01;;;;;;;6.83;6.10;;;10.50;99.90;;;;;;5097898;28;20178;-91
2024/02/03 01:21:27;;;;;;;7.90;6.30;;;10.50;99.90;;;;;;5101098;28;20610;-91
2024/02/03 01:23:55;;;;;;;7.40;6.20;;;10.60;99.90;;;;;;5105765;28;20190;-89
2024/02/03 01:26:21;;;;;;;7.63;6.33;;;10.60;99.90;;;;;;5112586;28;20171;-90
2024/02/03 01:28:49;;;;;;;10.67;6.73;;;10.70;99.90;;;;;;5101118;28;20262;-88
2024/02/03 01:31:15;;;;;;;9.10;6.70;;;10.60;99.90;;;;;;5100300;28;20171;-89
2024/02/03 01:33:41;;;;;;;9.00;6.70;;;10.60;99.90;;;;;;5099337;28;20517;-86
2024/02/03 01:36:08;;;;;;;11.50;7.00;;;10.60;99.90;;;;;;5099751;28;20206;-87
2024/02/03 01:38:34;;;;;;;8.60;6.57;;;10.60;99.90;;;;;;5102892;28;20247;-86
2024/02/03 01:41:00;;;;;;;7.00;6.30;;;10.80;99.90;;;;;;5111970;28;20174;-87
2024/02/03 01:43:27;;;;;;;8.70;6.83;;;10.70;99.90;;;;;;5100700;28;20187;-90
2024/02/03 01:45:53;;;;;;;9.73;6.97;;;10.60;99.90;;;;;;5099640;28;20159;-91
2024/02/03 01:48:19;;;;;;;7.93;7.13;;;10.60;99.90;;;;;;5099602;28;20314;-88
2024/02/03 01:50:49;;;;;;;8.27;6.67;;;10.50;99.90;;;;;;5099533;28;20177;-88
2024/02/03 01:53:17;;;;;;;9.90;7.00;;;10.50;99.90;;;;;;5114789;28;20178;-86
2024/02/03 01:55:43;;;;;;;11.60;7.30;;;10.50;99.90;;;;;;5121357;28;20159;-86
2024/02/03 01:58:09;;;;;;;9.13;6.77;;;10.50;99.90;;;;;;5108845;28;20289;-91
2024/02/03 02:00:35;;;;;;;10.10;7.00;;;10.60;99.90;;;;;;5110714;28;20189;-89
2024/02/03 02:03:00;;;;;;;10.37;7.50;;;10.50;99.90;;;;;;5099362;28;20588;-92
2024/02/03 02:05:28;;;;;;;11.13;7.00;;;10.50;99.90;;;;;;5102402;28;20213;-87
2024/02/03 02:07:54;;;;;;;9.20;7.37;;;10.50;99.90;;;;;;5098663;28;20740;-93
2024/02/03 02:10:22;;;;;;;8.00;7.10;;;10.50;99.90;;;;;;5098262;28;20167;-91
2024/02/03 02:12:47;;;;;;;10.87;7.67;;;10.60;99.90;;;;;;5098080;28;20164;-92
2024/02/03 02:15:13;;;;;;;9.87;7.57;;;10.60;99.90;;;;;;5097768;28;20204;-89
2024/02/03 02:17:39;;;;;;;11.37;8.50;;;10.70;99.90;;;;;;5098119;28;20600;-90
2024/02/03 02:20:09;;;;;;;10.40;8.23;;;10.70;99.90;;;;;;5098363;28;20266;-87
2024/02/03 02:22:35;;;;;;;12.20;8.93;;;10.70;99.90;;;;;;5097557;28;20642;-91
2024/02/03 02:25:02;;;;;;;11.27;7.97;;;10.70;99.90;;;;;;5097684;28;20573;-87
2024/02/03 02:27:28;;;;;;;10.63;8.37;;;10.70;99.90;;;;;;5097095;28;20171;-87
2024/02/03 02:29:54;;;;;;;12.07;8.40;;;10.80;99.90;;;;;;5095823;28;20647;-94
2024/02/03 02:32:22;;;;;;;10.97;8.07;;;10.70;99.90;;;;;;5097618;28;20259;-87
2024/02/03 02:34:48;;;;;;;14.67;8.63;;;10.70;99.90;;;;;;5097306;28;20180;-91
2024/02/03 02:37:14;;;;;;;10.73;7.73;;;10.70;99.90;;;;;;5097693;28;20240;-87
2024/02/03 02:39:41;;;;;;;8.83;7.93;;;10.70;99.90;;;;;;5097525;28;20172;-89
2024/02/03 02:42:06;;;;;;;12.20;8.10;;;10.70;99.90;;;;;;5096985;28;20168;-88
2024/02/03 02:44:33;;;;;;;10.10;7.90;;;10.70;99.90;;;;;;5105468;28;20203;-87
2024/02/03 02:46:58;;;;;;;11.00;8.80;;;10.70;99.90;;;;;;5099743;28;20502;-87
2024/02/03 02:49:24;;;;;;;12.00;9.00;;;10.70;99.90;;;;;;5096832;28;20284;-90
2024/02/03 02:51:50;;;;;;;10.73;8.57;;;10.70;99.90;;;;;;5096270;28;20190;-87
2024/02/03 02:54:16;;;;;;;11.57;8.43;;;10.60;99.90;;;;;;5097158;28;20181;-87
2024/02/03 02:56:42;;;;;;;10.87;8.13;;;10.60;99.90;;;;;;5097688;28;20178;-91
2024/02/03 02:59:08;;;;;;;12.10;8.57;;;10.60;99.90;;;;;;5096972;28;20207;-92
2024/02/03 03:01:33;;;;;;;12.17;8.30;;;10.70;99.90;;;;;;5096427;28;20163;-90
2024/02/03 03:03:59;;;;;;;9.47;7.67;;;10.70;99.90;;;;;;5096403;28;20250;-87
2024/02/03 03:06:25;;;;;;;10.03;7.87;;;10.60;99.90;;;;;;5096724;28;20235;-89
2024/02/03 03:08:50;;;;;;;11.00;7.50;;;10.60;99.90;;;;;;5095836;28;20546;-92
2024/02/03 03:11:16;;;;;;;11.83;7.83;;;10.50;99.90;;;;;;5097069;28;20175;-93
2024/02/03 03:13:42;;;;;;;11.73;7.77;;;10.50;99.90;;;;;;5096773;28;20537;-92
2024/02/03 03:16:11;;;;;;;12.03;7.40;;;10.50;99.90;;;;;;5095962;28;20522;-91
2024/02/03 03:18:40;;;;;;;8.80;7.47;;;10.50;99.90;;;;;;5097039;28;20258;-88
2024/02/03 03:21:07;;;;;;;10.63;7.57;;;10.50;99.90;;;;;;5096687;28;20231;-90
2024/02/03 03:23:33;;;;;;;10.97;7.73;;;10.60;99.90;;;;;;5096721;28;20685;-93
2024/02/03 03:25:59;;;;;;;11.00;7.90;;;10.60;99.90;;;;;;5095787;28;20175;-87
2024/02/03 03:28:26;;;;;;;13.67;7.83;;;10.60;99.90;;;;;;5097061;28;20258;-90
2024/02/03 03:30:52;;;;;;;12.43;8.00;;;10.50;99.90;;;;;;5097359;28;20178;-87
2024/02/03 03:33:18;;;;;;;9.77;7.97;;;10.50;99.90;;;;;;5096057;28;20183;-91
2024/02/03 03:35:44;;;;;;;11.67;7.77;;;10.60;99.90;;;;;;5099013;28;20171;-90
2024/02/03 03:38:11;;;;;;;12.03;7.10;;;10.60;99.90;;;;;;5096865;28;20179;-88
2024/02/03 03:40:37;;;;;;;9.67;7.83;;;10.50;99.90;;;;;;5096599;28;20216;-87
2024/02/03 03:43:06;;;;;;;10.43;7.67;;;10.60;99.90;;;;;;5096944;28;20257;-87
2024/02/03 03:45:32;;;;;;;10.47;7.87;;;10.60;99.90;;;;;;5108403;28;20234;-90
2024/02/03 03:47:58;;;;;;;10.60;7.53;;;10.60;99.90;;;;;;5097542;28;20539;-89
2024/02/03 03:50:24;;;;;;;11.70;8.50;;;10.70;99.90;;;;;;5105265;28;20224;-85
2024/02/03 03:52:50;;;;;;;12.90;7.70;;;10.60;99.90;;;;;;5127505;28;20163;-85
2024/02/03 03:55:16;;;;;;;11.03;7.67;;;10.60;99.90;;;;;;5106040;28;20270;-90
2024/02/03 03:57:42;;;;;;;14.17;7.87;;;10.60;99.90;;;;;;5096749;28;20253;-89
2024/02/03 04:00:10;;;;;;;12.70;7.87;;;10.60;99.90;;;;;;5097189;28;20186;-90
2024/02/03 04:02:39;;;;;;;11.47;7.10;;;10.50;99.90;;;;;;5105385;28;20182;-87
2024/02/03 04:05:15;;;;;;;9.90;7.23;;;10.50;99.90;;;;;;5110669;28;20211;-92
2024/02/03 04:07:46;;;;;;;10.57;7.50;;;10.60;99.90;;;;;;5097116;28;20239;-90
2024/02/03 04:10:11;;;;;;;9.23;7.70;;;10.70;99.90;;;;;;5096210;28;20163;-89
2024/02/03 04:12:37;;;;;;;11.47;7.53;;;10.60;99.90;;;;;;5095549;28;20174;-91
2024/02/03 04:15:03;;;;;;;10.57;7.67;;;10.60;99.90;;;;;;5096286;28;20631;-87
2024/02/03 04:17:29;;;;;;;14.80;8.77;;;10.70;99.90;;;;;;5096004;28;20177;-88
2024/02/03 04:19:54;;;;;;;16.40;7.90;;;10.70;99.90;;;;;;5095984;28;20642;-89
2024/02/03 04:22:21;;;;;;;13.40;8.67;;;10.70;99.90;;;;;;5095673;28;20170;-90
2024/02/03 04:24:47;;;;;;;10.90;7.77;;;10.80;99.90;;;;;;5095780;28;20686;-90
2024/02/03 04:27:12;;;;;;;12.93;8.40;;;10.80;99.90;;;;;;5095429;28;20167;-89
2024/02/03 04:29:38;;;;;;;10.90;7.70;;;10.90;99.90;;;;;;5096019;28;20695;-91
2024/02/03 04:32:05;;;;;;;15.20;7.23;;;10.90;99.90;;;;;;5095850;28;20178;-92
2024/02/03 04:34:31;;;;;;;15.27;8.10;;;10.80;99.90;;;;;;5097339;28;20178;-88
2024/02/03 04:36:56;;;;;;;10.10;7.00;;;10.80;99.90;;;;;;5096439;28;20179;-89
2024/02/03 04:39:22;;;;;;;11.80;7.70;;;10.90;99.90;;;;;;5096675;28;20177;-91
2024/02/03 04:41:48;;;;;;;15.97;8.30;;;10.80;99.90;;;;;;5096690;28;20174;-88
2024/02/03 04:44:14;;;;;;;12.47;7.77;;;10.90;99.90;;;;;;5096661;28;20561;-88
2024/02/03 04:46:39;;;;;;;11.23;7.33;;;10.90;99.90;;;;;;5096421;28;20654;-90
2024/02/03 04:49:05;;;;;;;10.63;7.67;;;10.90;99.90;;;;;;5095494;28;20635;-88
2024/02/03 04:51:31;;;;;;;15.27;7.70;;;10.90;99.90;;;;;;5096370;28;20664;-89
2024/02/03 04:53:56;;;;;;;11.20;7.17;;;10.90;99.90;;;;;;5099245;28;20213;-89
2024/02/03 04:56:22;;;;;;;13.03;7.83;;;11.00;99.90;;;;;;5099676;28;20186;-90
2024/02/03 04:58:47;;;;;;;14.97;7.90;;;11.00;99.90;;;;;;5099396;28;20223;-88
2024/02/03 05:01:14;;;;;;;15.73;8.17;;;11.00;99.90;;;;;;5099741;28;20699;-87
2024/02/03 05:03:40;;;;;;;15.07;7.37;;;11.10;99.90;;;;;;5098935;28;20234;-90
2024/02/03 05:06:06;;;;;;;17.43;7.93;;;11.00;99.90;;;;;;5100200;28;20175;-89
2024/02/03 05:08:32;;;;;;;13.27;7.83;;;11.00;99.90;;;;;;5115966;28;20171;-85
2024/02/03 05:10:58;;;;;;;17.20;7.87;;;10.90;99.90;;;;;;5120779;28;20227;-87
2024/02/03 05:13:26;;;;;;;15.90;8.60;;;11.00;99.90;;;;;;5106179;28;20167;-87
2024/02/03 05:15:54;;;;;;;14.63;7.03;;;11.00;99.90;;;;;;5103181;28;20159;-87
2024/02/03 05:18:21;;;;;;;14.07;8.73;;;10.90;99.90;;;;;;5100051;28;20561;-92
2024/02/03 05:20:48;;;;;;;16.47;7.17;;;10.80;99.90;;;;;;5107637;28;20171;-86
2024/02/03 05:23:13;;;;;;;12.37;7.67;;;10.80;99.90;;;;;;5111147;28;20198;-91
2024/02/03 05:25:41;;;;;;;12.07;7.70;;;10.90;99.90;;;;;;5099140;28;20647;-91
2024/02/03 05:28:07;;;;;;;13.13;7.43;;;10.80;99.90;;;;;;5099316;28;20178;-90
2024/02/03 05:30:33;;;;;;;12.40;7.87;;;10.90;99.90;;;;;;5098726;28;20171;-91
2024/02/03 05:32:58;;;;;;;10.17;7.10;;;10.70;99.90;;;;;;5098307;28;20212;-90
2024/02/03 05:35:24;;;;;;;11.30;7.53;;;10.70;99.90;;;;;;5098414;28;20225;-86
2024/02/03 05:37:51;;;;;;;14.40;7.30;;;10.80;99.90;;;;;;5098976;28;20189;-91
2024/02/03 05:40:17;;;;;;;11.73;7.10;;;10.80;99.90;;;;;;5098873;28;20182;-89
2024/02/03 05:42:42;;;;;;;12.70;6.57;;;10.70;99.90;;;;;;5099294;28;20668;-89
2024/02/03 05:45:09;;;;;;;12.17;7.47;;;10.80;99.90;;;;;;5099905;28;20761;-88
2024/02/03 05:47:34;;;;;;;14.27;8.00;;;10.80;99.90;;;;;;5110603;28;20178;-87
2024/02/03 05:50:00;;;;;;;12.97;7.07;;;10.70;99.90;;;;;;5099248;28;20537;-91
2024/02/03 05:52:26;;;;;;;13.30;7.07;;;10.80;99.90;;;;;;5098361;28;20267;-90
2024/02/03 05:54:52;;;;;;;12.40;7.53;;;10.90;99.90;;;;;;5098746;28;20182;-87
2024/02/03 05:57:17;;;;;;;13.53;7.67;;;10.90;99.90;;;;;;5098596;28;20171;-88
2024/02/03 05:59:44;;;;;;;12.10;7.53;;;10.90;99.90;;;;;;5097939;28;20222;-90
2024/02/03 06:02:10;;;;;;;14.30;7.27;;;10.80;99.90;;;;;;5097798;28;20171;-91
2024/02/03 06:04:36;;;;;;;12.43;7.70;;;10.90;99.90;;;;;;5097790;28;20217;-88
2024/02/03 06:07:02;;;;;;;14.77;7.20;;;10.90;99.90;;;;;;5098213;28;20183;-91
2024/02/03 06:09:28;;;;;;;11.50;7.60;;;10.90;99.90;;;;;;5098022;28;20596;-91
2024/02/03 06:11:53;;;;;;;11.40;7.70;;;10.80;99.90;;;;;;5098530;28;20266;-91
2024/02/03 06:14:19;;;;;;;10.80;6.77;;;10.80;99.90;;;;;;5099462;28;20639;-87
2024/02/03 06:16:45;;;;;;;13.60;8.20;;;10.90;99.90;;;;;;5098838;28;20665;-88
2024/02/03 06:19:10;;;;;;;15.23;7.93;;;10.90;99.90;;;;;;5099544;28;20265;-88
2024/02/03 06:21:36;;;;;;;14.53;8.40;;;10.90;99.90;;;;;;5098609;28;20221;-88
2024/02/03 06:24:02;;;;;;;17.83;8.60;;;10.90;99.90;;;;;;5096769;28;20191;-88
2024/02/03 06:26:31;;;;;;;15.13;7.60;;;10.90;99.90;;;;;;5098505;28;20651;-91
2024/02/03 06:28:57;;;;;;;13.23;7.67;;;11.00;99.90;;;;;;5098093;28;20246;-90
2024/02/03 06:31:23;;;;;;;12.50;7.40;;;11.10;99.90;;;;;;5097717;28;20461;-87
2024/02/03 06:33:49;;;;;;;12.30;7.67;;;11.00;99.90;;;;;;5097830;28;20182;-91
2024/02/03 06:36:15;;;;;;;14.97;7.47;;;11.00;99.90;;;;;;5097578;28;20240;-88
2024/02/03 06:38:41;;;;;;;12.10;7.30;;;10.90;99.90;;;;;;5102367;28;20167;-88
2024/02/03 06:41:10;;;;;;;15.30;7.67;;;11.00;99.90;;;;;;5104011;28;20528;-88
2024/02/03 06:43:40;;;;;;;14.27;7.40;;;10.90;99.90;;;;;;5097522;28;20198;-87
2024/02/03 06:46:07;;;;;;;16.17;7.60;;;10.90;99.90;;;;;;5097457;28;20175;-87
2024/02/03 06:48:32;;;;;;;12.80;7.50;;;11.00;99.90;;;;;;5097641;28;20167;-89
2024/02/03 06:50:58;;;;;;;17.43;8.20;;;11.00;99.90;;;;;;5096968;28;20218;-90
2024/02/03 06:53:24;;;;;;;13.53;7.80;;;11.00;99.90;;;;;;5096846;28;20167;-87
2024/02/03 06:55:51;;;;;;;15.00;7.77;;;11.10;99.90;;;;;;5097441;28;20179;-90
2024/02/03 06:58:17;;;;;;;14.20;7.43;;;11.00;99.90;;;;;;5096839;28;20271;-91
2024/02/03 07:00:42;;;;;;;16.03;8.37;;;10.90;99.90;;;;;;5096096;28;20655;-89
2024/02/03 07:03:08;;;;;;;16.10;8.37;;;10.90;99.90;;;;;;5097337;28;20182;-91
2024/02/03 07:05:34;;;;;;;10.13;8.03;;;11.00;99.90;;;;;;5096624;28;20215;-88
2024/02/03 07:08:01;;;;;;;14.63;9.10;;;10.90;99.90;;;;;;5097835;28;20219;-89
2024/02/03 07:10:27;;;;;;;16.53;8.20;;;10.90;99.90;;;;;;5097503;28;20172;-89
2024/02/03 07:12:54;;;;;;;14.80;8.70;;;10.80;99.90;;;;;;5096563;28;20197;-92
2024/02/03 07:15:20;;;;;;;13.70;8.40;;;10.90;99.90;;;;;;5096248;28;20221;-91
2024/02/03 07:17:46;;;;;;;13.90;8.40;;;10.90;99.90;;;;;;5097039;28;20175;-87
2024/02/03 07:20:12;;;;;;;15.67;9.17;;;10.90;99.90;;;;;;5096588;28;20175;-88
2024/02/03 07:22:38;;;;;;;14.43;8.97;;;10.90;99.90;;;;;;5096295;28;20194;-93
2024/02/03 07:25:05;;;;;;;20.40;8.63;;;11.00;99.90;;;;;;5096648;28;20241;-90
2024/02/03 07:27:30;;;;;;;16.47;9.20;;;11.00;99.90;;;;;;5096045;28;20189;-91
2024/02/03 07:29:56;;;;;;;17.70;9.83;;;11.00;99.90;;;;;;5096212;28;20171;-90
2024/02/03 07:32:22;;;;;;;13.70;9.20;;;10.90;99.90;;;;;;5096190;28;20171;-88
2024/02/03 07:34:48;;;;;;;15.13;9.87;;;10.90;99.90;;;;;;5096805;28;20168;-87
2024/02/03 07:37:14;;;;;;;17.70;8.87;;;11.10;99.90;;;;;;5096149;28;20286;-89
2024/02/03 07:39:39;;;;;;;17.97;9.60;;;11.10;99.90;;;;;;5099240;28;20178;-89
2024/02/03 07:42:06;;;;;;;18.93;10.20;;;11.20;99.90;;;;;;5099950;28;20204;-88
2024/02/03 07:44:32;;;;;;;17.70;10.17;;;11.10;99.90;;;;;;5101606;28;20225;-89
2024/02/03 07:47:01;;;;;;;17.10;10.03;;;11.20;99.90;;;;;;5100361;28;20171;-91
2024/02/03 07:49:26;;;;;;;14.33;9.90;;;11.20;99.90;;;;;;5103976;28;20171;-87
2024/02/03 07:51:53;;;;;;;16.43;10.10;;;11.10;99.90;;;;;;5101145;28;20169;-87
2024/02/03 07:54:20;;;;;;;13.97;9.63;;;11.20;99.90;;;;;;5105639;28;20163;-91
2024/02/03 07:56:45;;;;;;;13.37;9.80;;;11.20;99.90;;;;;;5108600;28;20182;-87
2024/02/03 07:59:11;;;;;;;18.07;9.60;;;11.30;99.90;;;;;;5104909;28;20210;-88
2024/02/03 08:01:40;;;;;;;13.97;9.50;;;11.30;99.90;;;;;;5097421;28;20166;-89
2024/02/03 08:04:06;;;;;;;17.67;9.30;;;11.30;99.90;;;;;;5096115;28;20223;-88
2024/02/03 08:06:32;;;;;;;16.53;9.43;;;11.30;99.90;;;;;;5096516;28;20582;-89
2024/02/03 08:08:58;;;;;;;14.97;9.17;;;11.20;99.90;;;;;;5096658;28;20250;-88
2024/02/03 08:11:23;;;;;;;14.87;9.23;;;11.30;99.90;;;;;;5096322;28;20175;-90
2024/02/03 08:13:49;;;;;;;14.93;9.47;;;11.30;99.90;;;;;;5096317;28;20666;-92
2024/02/03 08:16:15;;;;;;;13.37;9.23;;;11.40;99.90;;;;;;5098918;28;20639;-87
2024/02/03 08:18:41;;;;;;;14.10;8.97;;;11.30;99.90;;;;;;5113750;28;20201;-86
2024/02/03 08:21:07;;;;;;;17.10;9.20;;;11.40;99.90;;;;;;5109201;28;20190;-91
2024/02/03 08:23:32;;;;;;;13.50;9.17;;;11.30;99.90;;;;;;5119807;28;20173;-86
2024/02/03 08:26:01;;;;;;;13.87;8.40;;;11.40;99.90;;;;;;5095714;28;20656;-86
2024/02/03 08:28:26;;;;;;;14.90;8.60;;;11.30;99.90;;;;;;5099920;28;20637;-87
2024/02/03 08:30:52;;;;;;;13.63;8.47;;;11.40;99.90;;;;;;5117383;28;20171;-87
2024/02/03 08:33:18;;;;;;;16.93;8.90;;;11.30;99.90;;;;;;5099205;28;20193;-85
2024/02/03 08:35:45;;;;;;;15.00;9.13;;;11.40;99.90;;;;;;5099241;28;20167;-89
2024/02/03 08:38:12;;;;;;;17.40;9.10;;;11.50;99.90;;;;;;5099337;28;20182;-89
2024/02/03 08:40:37;;;;;;;12.73;8.63;;;11.60;99.90;;;;;;5099578;28;20634;-85
2024/02/03 08:43:04;;;;;;;15.53;8.73;;;11.50;99.90;;;;;;5100276;28;20171;-87
2024/02/03 08:45:31;;;;;;;15.00;8.73;;;11.50;99.90;;;;;;5101421;28;20229;-90
2024/02/03 08:47:57;;;;;;;14.77;8.73;;;11.50;99.90;;;;;;5101046;28;20225;-94
2024/02/03 08:50:23;;;;;;;17.90;9.23;;;11.40;99.90;;;;;;5101101;28;20623;-89
2024/02/03 08:52:48;;;;;;;18.87;9.07;;;11.40;99.90;;;;;;5100615;28;20167;-89
2024/02/03 08:55:15;;;;;;;15.33;8.30;;;11.50;99.90;;;;;;5099910;28;20266;-89
2024/02/03 08:57:41;;;;;;;17.53;9.03;;;11.50;99.90;;;;;;5099773;28;20673;-89
2024/02/03 09:00:07;;;;;;;12.07;7.93;;;11.40;99.90;;;;;;5099902;28;20222;-92
2024/02/03 09:02:33;;;;;;;12.23;7.40;;;11.50;99.90;;;;;;5093300;28;20206;-94
2024/02/03 09:05:02;;;;;;;14.17;7.70;;;11.60;99.90;;;;;;5080221;28;20204;-91
2024/02/03 09:07:28;;;;;;;12.40;7.03;;;11.60;99.90;;;;;;5084569;28;20286;-95
2024/02/03 09:09:54;;;;;;;14.50;7.73;;;11.60;99.90;;;;;;5069410;28;20652;-90
2024/02/03 09:12:20;;;;;;;13.93;7.10;;;11.70;99.90;;;;;;5079824;28;20172;-90
2024/02/03 09:14:46;;;;;;;14.07;7.57;;;11.70;99.90;;;;;;5087794;28;20200;-88
2024/02/03 09:17:12;;;;;;;13.43;6.77;;;11.70;99.90;;;;;;5087515;28;20168;-88
2024/02/03 09:19:50;;;;;;;12.90;7.43;;;11.80;99.90;;;;;;5082565;28;20309;-90
2024/02/03 09:22:16;;;;;;;14.13;7.30;;;11.70;99.90;;;;;;5079751;28;20274;-89
2024/02/03 09:24:43;;;;;;;12.73;6.83;;;11.60;99.90;;;;;;5078456;28;20308;-91
2024/02/03 09:27:08;;;;;;;14.87;7.43;;;11.70;99.90;;;;;;5079234;28;20232;-89
2024/02/03 09:29:40;;;;;;;12.87;6.93;;;11.80;99.90;;;;;;5079050;28;20225;-90
2024/02/03 09:32:06;;;;;;;13.67;7.50;;;11.90;99.90;;;;;;5098113;28;20889;-88
2024/02/03 09:34:32;;;;;;;12.20;7.03;;;11.90;99.90;;;;;;5099146;28;20159;-88
2024/02/03 09:36:57;;;;;;;12.07;6.87;;;11.90;99.90;;;;;;5099037;28;20185;-93
2024/02/03 09:39:25;;;;;;;13.50;6.60;;;11.80;99.90;;;;;;5098789;28;20175;-88
2024/02/03 09:41:54;;;;;;;10.83;7.27;;;11.80;99.90;;;;;;5099490;28;20258;-91
2024/02/03 09:44:23;;;;;;;14.13;7.33;;;11.80;99.90;;;;;;5099821;28;20244;-91
2024/02/03 09:46:49;;;;;;;13.70;6.63;;;11.80;99.90;;;;;;5099798;28;20270;-90
2024/02/03 09:49:16;;;;;;;17.87;7.50;;;11.70;99.90;;;;;;5100237;28;20659;-90
2024/02/03 09:51:42;;;;;;;14.93;7.30;;;11.70;99.90;;;;;;5102357;28;20203;-91
2024/02/03 09:54:12;;;;;;;13.13;6.50;;;11.70;99.90;;;;;;5104551;28;20163;-90
2024/02/03 09:56:40;;;;;;;15.67;7.10;;;11.70;99.90;;;;;;5106643;28;20205;-92
2024/02/03 09:59:06;;;;;;;19.60;8.10;;;11.70;99.90;;;;;;5096873;28;20209;-90
2024/02/03 10:01:33;;;;;;;13.07;6.73;;;11.70;99.90;;;;;;5098704;28;20182;-90
2024/02/03 10:03:59;;;;;;;15.17;7.63;;;11.80;99.90;;;;;;5098115;28;20252;-89
2024/02/03 10:06:24;;;;;;;14.63;7.37;;;11.80;99.90;;;;;;5100725;28;20174;-92
2024/02/03 10:08:51;;;;;;;12.73;6.23;;;11.80;99.90;;;;;;5103105;28;20175;-87
2024/02/03 10:11:18;;;;;;;13.13;6.23;;;11.90;99.90;;;;;;5103642;28;20232;-91
2024/02/03 10:13:46;;;;;;;17.03;6.80;;;11.80;99.90;;;;;;5107915;28;20199;-89
2024/02/03 10:16:12;;;;;;;9.53;6.27;;;11.80;99.90;;;;;;5105464;28;20175;-89
2024/02/03 10:18:37;;;;;;;16.27;7.10;;;11.80;99.90;;;;;;5105196;28;20646;-88
2024/02/03 10:21:03;;;;;;;14.27;6.83;;;11.80;99.90;;;;;;5098834;28;20167;-88
2024/02/03 10:23:30;;;;;;;18.27;7.50;;;11.80;99.90;;;;;;5102284;28;20198;-88
2024/02/03 10:25:57;;;;;;;15.33;7.27;;;11.90;99.90;;;;;;5098350;28;20247;-89
2024/02/03 10:28:23;;;;;;;11.53;7.00;;;11.90;99.90;;;;;;5098861;28;20170;-88
2024/02/03 10:30:50;;;;;;;12.73;6.80;;;12.00;99.90;;;;;;5100213;28;20261;-90
2024/02/03 10:33:16;;;;;;;16.77;7.93;;;12.00;99.90;;;;;;5099312;28;20183;-88
2024/02/03 10:35:42;;;;;;;18.37;7.80;;;11.90;99.90;;;;;;5098920;28;20193;-93
2024/02/03 10:38:08;;;;;;;13.50;7.97;;;11.80;99.90;;;;;;5111086;28;20201;-88
2024/02/03 10:40:38;;;;;;;15.37;7.77;;;11.80;99.90;;;;;;5103459;28;20300;-90
2024/02/03 10:43:16;;;;;;;18.47;8.03;;;11.80;99.90;;;;;;5099314;28;20190;-87
2024/02/03 10:45:45;;;;;;;17.77;7.97;;;11.80;99.90;;;;;;5081281;28;20295;-89
2024/02/03 10:48:18;;;;;;;13.23;7.30;;;11.80;99.90;;;;;;5095526;28;20232;-88
2024/02/03 10:50:46;;;;;;;16.53;7.17;;;11.70;99.90;;;;;;5096333;28;20174;-88
2024/02/03 10:53:18;;;;;;;11.87;7.50;;;11.60;99.90;;;;;;5091823;28;20519;-92
2024/02/03 10:55:54;;;;;;;19.80;7.90;;;11.60;99.90;;;;;;5092425;28;20222;-89
2024/02/03 10:58:26;;;;;;;16.83;7.43;;;11.60;99.90;;;;;;5099448;28;20190;-89
2024/02/03 11:00:53;;;;;;;12.80;7.27;;;11.60;99.90;;;;;;5096990;28;20187;-91
2024/02/03 11:03:22;;;;;;;17.77;8.93;;;11.60;99.90;;;;;;5096810;28;20182;-92
2024/02/03 11:05:57;;;;;;;17.07;8.30;;;11.60;99.90;;;;;;5096362;28;20217;-91
2024/02/03 11:08:24;;;;;;;12.43;7.80;;;11.60;99.90;;;;;;5092705;28;20198;-91
2024/02/03 11:10:50;;;;;;;15.03;8.57;;;11.60;99.90;;;;;;5099667;28;20170;-95
2024/02/03 11:13:38;;;;;;;15.00;8.27;;;11.60;99.90;;;;;;5103064;28;20254;-88
2024/02/03 11:16:09;;;;;;;15.77;8.50;;;11.70;99.90;;;;;;5100238;28;20175;-93
2024/02/03 11:18:42;;;;;;;15.07;8.43;;;11.70;99.90;;;;;;5101913;28;20411;-91
2024/02/03 11:21:08;;;;;;;15.23;8.97;;;11.70;99.90;;;;;;5096989;28;20735;-93
2024/02/03 11:23:35;;;;;;;15.07;8.57;;;11.60;99.90;;;;;;5096762;28;20183;-91
2024/02/03 11:26:01;;;;;;;15.63;9.00;;;11.60;99.90;;;;;;5098937;28;20182;-87
2024/02/03 11:28:32;;;;;;;14.47;8.97;;;11.60;99.90;;;;;;5099390;28;20277;-90
2024/02/03 11:31:01;;;;;;;15.10;7.97;;;11.60;99.90;;;;;;5099112;28;20175;-90
2024/02/03 11:33:29;;;;;;;16.90;8.83;;;11.60;99.90;;;;;;5097945;28;20177;-90
2024/02/03 11:36:03;;;;;;;16.60;8.83;;;11.60;99.90;;;;;;5100114;28;20179;-91
2024/02/03 11:38:49;;;;;;;16.63;8.57;;;11.60;99.90;;;;;;5113756;28;20171;-90
2024/02/03 11:41:16;;;;;;;12.90;8.83;;;11.60;99.90;;;;;;5097607;28;20521;-90
2024/02/03 11:43:42;;;;;;;15.23;8.20;;;11.70;99.90;;;;;;5097075;28;20163;-89
2024/02/03 11:46:12;;;;;;;14.50;8.43;;;11.70;99.90;;;;;;5109151;28;20155;-88
2024/02/03 11:48:39;;;;;;;13.63;7.90;;;11.80;99.90;;;;;;5114811;28;20176;-88
2024/02/03 11:51:09;;;;;;;12.10;7.90;;;11.80;99.90;;;;;;5100552;28;20194;-92
2024/02/03 11:53:34;;;;;;;18.30;8.87;;;11.80;99.90;;;;;;5097573;28;20193;-90
2024/02/03 11:56:03;;;;;;;16.20;8.33;;;11.70;99.90;;;;;;5097426;28;20164;-89
2024/02/03 11:58:30;;;;;;;16.30;8.47;;;11.80;99.90;;;;;;5096347;28;20199;-89
2024/02/03 12:01:06;;;;;;;13.43;8.47;;;11.80;99.90;;;;;;5104753;28;20244;-90
2024/02/03 12:03:35;;;;;;;14.77;8.20;;;11.80;99.90;;;;;;5101236;28;20166;-91
2024/02/03 12:06:02;;;;;;;11.90;8.17;;;11.80;99.90;;;;;;5089906;28;20691;-89
2024/02/03 12:08:30;;;;;;;13.67;8.23;;;11.80;99.90;;;;;;5082056;28;20179;-88
2024/02/03 12:10:56;;;;;;;12.93;8.17;;;11.80;99.90;;;;;;5082343;28;20187;-93
2024/02/03 12:13:22;;;;;;;15.00;7.37;;;11.80;99.90;;;;;;5076328;28;20252;-85
2024/02/03 12:15:48;;;;;;;16.10;8.33;;;11.70;99.90;;;;;;5077288;28;20632;-91
2024/02/03 12:18:19;;;;;;;12.40;8.50;;;11.70;99.90;;;;;;5077814;28;20608;-93
2024/02/03 12:20:45;;;;;;;13.97;8.40;;;11.70;99.90;;;;;;5082242;28;20160;-85
2024/02/03 12:23:15;;;;;;;14.07;8.17;;;11.70;99.90;;;;;;5083919;28;20178;-88
2024/02/03 12:25:43;;;;;;;15.93;8.53;;;11.80;99.90;;;;;;5079372;28;20683;-87
2024/02/03 12:28:11;;;;;;;17.00;8.90;;;11.70;99.90;;;;;;5076051;28;20167;-88
2024/02/03 12:30:39;;;;;;;14.90;8.27;;;11.70;99.90;;;;;;5080945;28;20167;-86
2024/02/03 12:33:06;;;;;;;15.43;8.00;;;11.70;99.90;;;;;;5078830;28;20236;-86
2024/02/03 12:35:32;;;;;;;18.30;8.37;;;11.70;99.90;;;;;;5077796;28;20172;-86